KSGU

St George Regional Airport

St George, Utah, USA
KSGU 200535Z 2006/2106 VRB04KT P6SM BKN200
Issued Valid From Valid To
Jan-20 @ 05:35 UTC
(6 hours ago)
Jan-20 @ 06:00 UTC
(6 hours ago)
Jan-21 @ 06:00 UTC
(in 18 hours)
Jan-20 @ 06:00 to Jan-21 @ 06:00
KSGU 200535Z 2006/2106 VRB04KT P6SM BKN200
Wind Visibility Clouds
Variable at 4 knots Greater than 6 miles
  • Broken at 20,000' AGL
KSGU 200535Z 2006/2106 VRB04KT P6SM BKN200
Issued Jan-20 @ 05:35 UTC
(6 hours ago)
Valid From Jan-20 @ 06:00 UTC
(6 hours ago)
Valid To Jan-21 @ 06:00 UTC
(in 18 hours)
Jan-20 @ 06:00 - Jan-21 @ 06:00
Wind Visibility
Variable at 4 knots Greater than 6 miles
Clouds
  • Broken at 20,000' AGL